Time;durP1;ratioP1;P1;durP2;ratioP2;P2;SDS_P1;SDS_P2;PMS_P1;PMS_P2;Temp;Humidity;BMP_temperature;BMP_pressure;BME280_temperature;BME280_humidity;BME280_pressure;Samples;Min_cycle;Max_cycle;Signal;HPM_P1;HPM_P2
2022/01/18 00:00:36;;;;;;;;;36.25;31.75;;;;;5.65;73.98;103515.66;5079023;27;45447;-48
2022/01/18 00:03:03;;;;;;;;;53.75;29.00;;;;;5.67;74.08;103521.75;5079213;27;45413;-49
2022/01/18 00:05:28;;;;;;;;;41.25;28.00;;;;;5.66;73.83;103513.88;5079307;27;45368;-47
2022/01/18 00:07:54;;;;;;;;;38.00;31.50;;;;;5.67;74.09;103519.09;5079593;28;45231;-47
2022/01/18 00:10:22;;;;;;;;;50.00;38.25;;;;;5.69;73.64;103514.66;5079011;28;46198;-46
2022/01/18 00:15:55;;;;;;;;;45.00;36.00;;;;;5.71;73.70;103525.16;5079089;27;45274;-48
2022/01/18 00:18:21;;;;;;;;;37.00;34.25;;;;;5.70;73.77;103511.09;5079110;27;45431;-48
2022/01/18 00:23:18;;;;;;;;;46.25;33.00;;;;;5.69;73.65;103530.50;5078949;28;45418;-53
2022/01/18 00:25:48;;;;;;;;;43.00;34.25;;;;;5.68;73.48;103512.03;5079091;27;45259;-47
2022/01/18 00:28:14;;;;;;;;;39.50;33.75;;;;;5.65;74.00;103505.09;5079047;27;45406;-47
2022/01/18 00:36:09;;;;;;;;;46.50;34.75;;;;;5.62;73.59;103499.03;5079011;28;45417;-50
2022/01/18 00:41:08;;;;;;;;;39.50;34.50;;;;;5.62;73.33;103512.25;5078673;28;45926;-48
2022/01/18 00:43:34;;;;;;;;;37.75;29.00;;;;;5.61;73.99;103497.31;5078728;28;45227;-57
2022/01/18 00:45:59;;;;;;;;;46.75;42.00;;;;;5.61;73.93;103497.31;5078666;28;45372;-53
2022/01/18 00:48:24;;;;;;;;;39.50;28.25;;;;;5.61;74.06;103499.97;5079330;28;45295;-49
2022/01/18 00:50:52;;;;;;;;;31.25;30.50;;;;;5.59;73.84;103502.63;5078758;28;45351;-62
2022/01/18 00:53:19;;;;;;;;;36.75;30.50;;;;;5.58;74.01;103500.91;5078475;27;45207;-61
2022/01/18 00:55:53;;;;;;;;;48.25;34.25;;;;;5.58;73.77;103505.31;5078768;28;45343;-56
2022/01/18 00:58:18;;;;;;;;;36.00;30.00;;;;;5.54;74.04;103501.91;5078784;28;45478;-61
2022/01/18 01:00:43;;;;;;;;;34.50;28.25;;;;;5.57;73.97;103498.31;5078299;27;45669;-59
2022/01/18 01:03:09;;;;;;;;;48.25;33.00;;;;;5.55;73.86;103497.50;5078487;28;45302;-59
2022/01/18 01:05:35;;;;;;;;;39.50;31.00;;;;;5.48;73.64;103476.56;5078550;28;45403;-57
2022/01/18 01:08:01;;;;;;;;;47.75;31.75;;;;;5.52;73.79;103482.63;5078840;28;45341;-46
2022/01/18 01:10:26;;;;;;;;;52.75;36.75;;;;;5.50;74.40;103497.63;5078300;28;45376;-52
2022/01/18 01:12:52;;;;;;;;;42.75;32.75;;;;;5.41;73.63;103485.56;5077605;28;45300;-57
2022/01/18 01:15:20;;;;;;;;;39.75;34.25;;;;;5.48;74.08;103502.97;5078474;28;45511;-58
2022/01/18 01:34:40;;;;;;;;;37.00;28.75;;;;;5.30;74.18;103498.22;5036450;28;45416;-55
2022/01/18 01:45:07;;;;;;;;;24.00;18.75;;;;;5.40;73.86;103512.03;5036764;28;45467;-62
2022/01/18 01:47:36;;;;;;;;;30.00;24.75;;;;;5.40;73.38;103498.84;5036487;28;45427;-62
2022/01/18 01:50:05;;;;;;;;;32.75;24.25;;;;;5.39;73.49;103513.78;5036843;28;45385;-62
2022/01/18 01:52:30;;;;;;;;;30.50;23.00;;;;;5.35;73.93;103520.09;5035761;28;45362;-61
2022/01/18 01:54:56;;;;;;;;;35.25;23.25;;;;;5.31;73.44;103510.53;5036634;28;45297;-52
2022/01/18 01:57:22;;;;;;;;;33.50;27.75;;;;;5.26;73.84;103515.91;5053280;28;45403;-50
2022/01/18 01:59:48;;;;;;;;;28.25;23.75;;;;;5.21;73.50;103514.31;5079198;28;45373;-63
2022/01/18 02:02:13;;;;;;;;;36.00;25.75;;;;;5.15;73.40;103507.47;5079004;28;45491;-49
2022/01/18 02:04:39;;;;;;;;;29.50;21.50;;;;;5.10;74.23;103519.94;5078857;28;45373;-62
2022/01/18 02:07:04;;;;;;;;;28.50;20.00;;;;;5.06;73.58;103523.56;5078258;28;45301;-61
2022/01/18 02:09:30;;;;;;;;;36.50;26.00;;;;;4.99;74.70;103519.34;5078532;28;45422;-57
2022/01/18 02:11:58;;;;;;;;;27.25;20.00;;;;;5.02;73.47;103513.13;5077129;28;46252;-49
2022/01/18 02:14:26;;;;;;;;;34.00;17.75;;;;;4.97;74.50;103510.59;5077399;27;45339;-50
2022/01/18 02:22:19;;;;;;;;;33.75;23.25;;;;;4.98;73.76;103512.34;5077186;28;45722;-48
2022/01/18 02:24:45;;;;;;;;;45.50;29.50;;;;;4.99;74.20;103514.06;5075952;28;45496;-62
2022/01/18 02:27:11;;;;;;;;;40.00;29.75;;;;;4.99;74.02;103512.28;5077336;28;45343;-49
2022/01/18 02:29:36;;;;;;;;;35.75;23.75;;;;;4.95;73.45;103510.66;5077674;27;45271;-48
2022/01/18 02:32:03;;;;;;;;;31.75;19.50;;;;;4.86;74.23;103502.13;5075171;28;45526;-62
2022/01/18 02:34:28;;;;;;;;;32.50;30.00;;;;;4.87;74.35;103514.41;5077185;28;45430;-61
2022/01/18 02:36:57;;;;;;;;;33.00;21.25;;;;;4.80;74.46;103511.06;5077043;28;45361;-59
2022/01/18 02:39:26;;;;;;;;;34.50;21.25;;;;;4.81;74.75;103501.41;5109494;27;45401;-61
2022/01/18 02:42:01;;;;;;;;;32.75;24.00;;;;;4.70;74.36;103489.34;5109812;27;46929;-61
2022/01/18 02:44:29;;;;;;;;;32.50;24.25;;;;;4.80;74.29;103513.69;5076866;28;45221;-59
2022/01/18 02:46:55;;;;;;;;;34.50;21.75;;;;;4.82;74.26;103498.72;5076950;27;45358;-58
2022/01/18 02:49:21;;;;;;;;;30.50;22.75;;;;;4.85;74.45;103490.72;5092721;27;45362;-55
2022/01/18 02:51:46;;;;;;;;;38.50;21.00;;;;;4.89;74.05;103504.69;5076809;28;46239;-47
2022/01/18 02:54:14;;;;;;;;;27.25;20.75;;;;;4.92;74.03;103513.38;5076959;27;45431;-57
2022/01/18 02:56:52;;;;;;;;;32.25;19.25;;;;;4.93;74.67;103495.75;5076969;28;45535;-50
2022/01/18 02:59:31;;;;;;;;;34.00;22.25;;;;;4.95;74.29;103488.69;5077029;27;45351;-58
2022/01/18 03:04:43;;;;;;;;;33.50;25.25;;;;;4.93;74.90;103457.09;5076807;28;45436;-47
2022/01/18 03:07:09;;;;;;;;;30.50;26.00;;;;;4.97;74.92;103473.66;5076817;28;45294;-61
2022/01/18 03:09:35;;;;;;;;;37.75;27.75;;;;;4.93;74.06;103474.66;5076847;28;45322;-46
2022/01/18 03:12:02;;;;;;;;;30.50;24.00;;;;;4.98;75.26;103463.09;5076662;28;46048;-58
2022/01/18 03:14:27;;;;;;;;;38.50;26.75;;;;;5.00;75.02;103460.41;5076680;28;45291;-48
2022/01/18 03:16:52;;;;;;;;;29.25;19.25;;;;;5.00;74.91;103468.31;5076776;28;45272;-49
2022/01/18 03:19:18;;;;;;;;;34.75;27.75;;;;;4.99;74.61;103438.44;5077077;28;45369;-52
2022/01/18 03:21:44;;;;;;;;;31.50;26.50;;;;;5.00;74.58;103448.06;5076554;28;45907;-50
2022/01/18 03:24:20;;;;;;;;;37.50;28.50;;;;;5.02;74.78;103453.31;5076557;28;45328;-52
2022/01/18 03:29:31;;;;;;;;;43.75;28.50;;;;;4.99;75.01;103443.72;5076797;28;45339;-46
2022/01/18 03:31:56;;;;;;;;;24.50;19.00;;;;;5.01;74.49;103467.41;5109159;27;45410;-56
2022/01/18 03:34:22;;;;;;;;;27.75;21.00;;;;;5.01;75.05;103456.84;5076495;28;45317;-46
2022/01/18 03:36:47;;;;;;;;;24.00;21.00;;;;;4.99;75.01;103458.69;5080092;27;45388;-57
2022/01/18 03:39:13;;;;;;;;;27.50;24.00;;;;;4.99;74.25;103458.69;5080254;27;45421;-45
2022/01/18 03:41:38;;;;;;;;;36.75;23.50;;;;;4.98;74.42;103439.34;5079727;28;45815;-46
2022/01/18 03:44:05;;;;;;;;;33.00;25.25;;;;;5.04;75.33;103429.53;5079834;27;45171;-46
2022/01/18 03:46:31;;;;;;;;;39.25;29.00;;;;;5.07;74.50;103454.03;5079822;27;45465;-60
2022/01/18 03:48:58;;;;;;;;;37.75;28.50;;;;;5.07;74.99;103459.31;5080227;27;45474;-48
2022/01/18 03:51:23;;;;;;;;;29.50;25.00;;;;;5.06;74.67;103440.91;5081396;28;45477;-48
2022/01/18 03:53:51;;;;;;;;;31.25;25.25;;;;;5.03;74.04;103446.25;5079680;28;45371;-47
2022/01/18 03:56:17;;;;;;;;;41.50;30.75;;;;;4.99;74.90;103445.50;5080562;27;45447;-50
2022/01/18 03:58:42;;;;;;;;;35.00;29.00;;;;;4.98;74.31;103439.34;5081207;28;45437;-59
2022/01/18 04:01:08;;;;;;;;;30.50;22.25;;;;;4.97;74.96;103444.66;5080463;28;45438;-46
2022/01/18 04:03:33;;;;;;;;;41.00;28.75;;;;;4.93;74.31;103449.19;5080856;28;45406;-55
2022/01/18 04:05:59;;;;;;;;;33.25;25.75;;;;;4.95;75.53;103451.75;5080927;28;45275;-48
2022/01/18 04:08:25;;;;;;;;;31.25;21.75;;;;;4.84;75.01;103422.16;5081722;28;45472;-60
2022/01/18 04:10:50;;;;;;;;;30.75;24.00;;;;;4.97;75.02;103452.56;5081277;28;45260;-48
2022/01/18 04:13:16;;;;;;;;;41.25;27.50;;;;;4.98;74.55;103436.72;5079983;28;45438;-51
2022/01/18 04:15:41;;;;;;;;;33.25;25.75;;;;;5.07;75.22;103440.84;5081721;28;45268;-55
2022/01/18 04:28:52;;;;;;;;;25.50;22.25;;;;;5.06;75.17;103431.22;5081910;28;45332;-46
2022/01/18 04:31:18;;;;;;;;;38.50;24.00;;;;;5.06;75.08;103433.00;5081339;28;46186;-58
2022/01/18 04:33:43;;;;;;;;;28.00;24.00;;;;;4.99;74.65;103430.53;5081385;28;45228;-47
2022/01/18 04:36:09;;;;;;;;;31.25;24.75;;;;;5.01;74.79;103443.66;5083103;28;45255;-48
2022/01/18 04:38:36;;;;;;;;;35.25;25.00;;;;;4.97;75.30;103442.91;5084880;28;45230;-59
2022/01/18 04:41:07;;;;;;;;;34.00;25.25;;;;;4.93;75.06;103441.25;5085623;27;45444;-59
2022/01/18 04:49:00;;;;;;;;;31.75;23.50;;;;;4.87;75.59;103430.00;5079254;28;45298;-53
2022/01/18 04:51:26;;;;;;;;;37.25;27.25;;;;;4.85;75.61;103426.56;5078942;28;45350;-51
2022/01/18 04:53:55;;;;;;;;;29.50;22.25;;;;;4.86;76.23;103426.50;5078483;27;45436;-46
2022/01/18 04:56:30;;;;;;;;;36.00;24.50;;;;;4.88;75.70;103429.94;5079385;27;45217;-54
2022/01/18 04:58:58;;;;;;;;;34.00;22.50;;;;;4.92;75.33;103430.72;5079712;27;45377;-49
2022/01/18 05:01:23;;;;;;;;;27.25;22.25;;;;;4.92;75.65;103430.72;5078689;28;46295;-49
2022/01/18 05:03:49;;;;;;;;;36.00;28.75;;;;;4.93;75.93;103430.72;5077041;28;45783;-50
2022/01/18 05:06:17;;;;;;;;;43.75;25.50;;;;;4.98;76.03;103436.72;5078762;28;45291;-45
2022/01/18 05:08:43;;;;;;;;;33.25;25.75;;;;;5.00;76.06;103423.47;5078809;27;45313;-47
2022/01/18 05:11:14;;;;;;;;;42.50;28.25;;;;;4.99;75.31;103419.09;5078641;28;46010;-48
2022/01/18 05:23:33;;;;;;;;;37.50;30.50;;;;;5.05;75.89;103437.38;5079828;28;45184;-46
2022/01/18 05:25:59;;;;;;;;;33.25;27.00;;;;;5.08;75.02;103439.94;5082815;28;45603;-47
2022/01/18 05:28:24;;;;;;;;;41.50;26.00;;;;;5.09;75.85;103441.66;5082157;27;45341;-48
2022/01/18 05:30:50;;;;;;;;;25.00;22.00;;;;;5.06;75.42;103441.78;5082231;28;45410;-46
2022/01/18 05:33:15;;;;;;;;;35.00;28.50;;;;;5.05;76.08;103441.78;5081693;27;45486;-49
2022/01/18 05:35:41;;;;;;;;;27.50;18.00;;;;;5.07;75.34;103440.00;5081887;28;45154;-47
2022/01/18 05:38:07;;;;;;;;;33.00;23.75;;;;;5.00;75.90;103416.41;5083417;28;45500;-48
2022/01/18 05:40:32;;;;;;;;;37.00;21.50;;;;;5.07;75.84;103432.94;5080410;28;45449;-47
2022/01/18 05:42:58;;;;;;;;;41.00;31.50;;;;;5.05;76.00;103426.81;5080071;28;45445;-48
2022/01/18 05:45:23;;;;;;;;;44.50;28.00;;;;;5.03;75.23;103418.09;5081299;28;45259;-48
2022/01/18 05:47:48;;;;;;;;;36.50;26.25;;;;;4.99;76.24;103414.69;5081369;28;45507;-49
2022/01/18 05:50:14;;;;;;;;;37.50;28.75;;;;;4.96;75.48;103414.78;5080441;28;46172;-47
2022/01/18 05:52:42;;;;;;;;;29.75;23.75;;;;;4.92;75.56;103421.03;5080992;28;45335;-53
2022/01/18 05:55:09;;;;;;;;;35.50;24.00;;;;;4.88;76.64;103423.81;5081603;27;45409;-49
2022/01/18 05:57:35;;;;;;;;;36.75;27.50;;;;;4.81;76.56;103409.09;5081902;28;45246;-47
2022/01/18 06:00:04;;;;;;;;;34.25;24.25;;;;;4.83;75.88;103426.59;5082278;28;46312;-47
2022/01/18 06:07:53;;;;;;;;;29.00;26.50;;;;;4.68;76.35;103416.50;5080973;28;45345;-46
2022/01/18 06:10:18;;;;;;;;;30.50;19.75;;;;;4.68;76.63;103421.78;5081376;28;47141;-48
2022/01/18 06:12:43;;;;;;;;;30.50;22.00;;;;;4.63;75.64;103427.13;5080081;28;45296;-47
2022/01/18 06:15:10;;;;;;;;;24.75;20.00;;;;;4.62;77.00;103432.47;5076885;28;45287;-47
2022/01/18 06:17:35;;;;;;;;;23.00;19.75;;;;;4.60;76.57;103432.53;5077901;28;45474;-49
2022/01/18 06:20:01;;;;;;;;;27.00;19.50;;;;;4.57;76.20;103429.97;5077486;28;46135;-49
2022/01/18 06:22:26;;;;;;;;;38.50;20.25;;;;;4.49;76.36;103424.88;5079235;28;45243;-48
2022/01/18 06:24:51;;;;;;;;;25.75;17.25;;;;;4.51;76.27;103430.16;5078035;28;45417;-49
2022/01/18 06:27:17;;;;;;;;;34.25;26.00;;;;;4.49;76.41;103434.56;5077308;28;45368;-49
2022/01/18 06:29:43;;;;;;;;;25.00;24.00;;;;;4.48;76.43;103432.84;5077324;28;45306;-48
2022/01/18 06:32:08;;;;;;;;;20.75;14.00;;;;;4.46;76.45;103429.38;5077325;28;45511;-50
2022/01/18 06:34:34;;;;;;;;;20.50;18.25;;;;;4.45;77.20;103425.03;5077257;28;45391;-55
2022/01/18 06:37:00;;;;;;;;;21.25;15.00;;;;;4.46;76.42;103432.00;5077290;28;45394;-54
2022/01/18 06:39:25;;;;;;;;;29.00;21.50;;;;;4.38;76.73;103419.06;5076791;28;45362;-46
2022/01/18 06:41:51;;;;;;;;;24.50;16.25;;;;;4.42;77.23;103430.34;5077121;28;45353;-50
2022/01/18 06:44:16;;;;;;;;;32.00;23.75;;;;;4.40;77.05;103430.41;5075771;28;45307;-52
2022/01/18 06:46:42;;;;;;;;;32.75;22.25;;;;;4.46;77.58;103439.91;5077268;27;45314;-53
2022/01/18 06:49:08;;;;;;;;;33.25;21.25;;;;;4.47;77.50;103439.91;5076760;27;45385;-46
2022/01/18 06:51:34;;;;;;;;;24.75;19.25;;;;;4.48;76.82;103441.63;5076862;28;45302;-56
2022/01/18 06:53:59;;;;;;;;;33.75;22.75;;;;;4.50;76.66;103433.66;5077020;28;45247;-48
2022/01/18 06:56:28;;;;;;;;;23.50;22.00;;;;;4.44;77.12;103426.78;5077180;28;45363;-49
2022/01/18 06:58:54;;;;;;;;;32.25;19.75;;;;;4.49;76.59;103442.47;5077094;28;46212;-47
2022/01/18 07:01:20;;;;;;;;;22.00;18.50;;;;;4.48;77.75;103435.50;5077367;28;45407;-51
2022/01/18 07:03:48;;;;;;;;;30.25;20.00;;;;;4.50;76.72;103434.53;5078083;28;45318;-49
2022/01/18 07:06:16;;;;;;;;;33.00;22.75;;;;;4.54;76.74;103437.09;5077572;28;45491;-49
2022/01/18 07:08:42;;;;;;;;;20.75;20.50;;;;;4.54;77.65;103434.44;5076952;27;46204;-57
2022/01/18 07:11:08;;;;;;;;;35.75;26.25;;;;;4.59;77.12;103436.03;5079403;28;45393;-59
2022/01/18 07:13:34;;;;;;;;;29.00;20.00;;;;;4.65;76.72;103437.66;5080430;28;45516;-53
2022/01/18 07:16:00;;;;;;;;;27.50;21.00;;;;;4.69;76.67;103441.94;5079643;28;45325;-52
2022/01/18 07:18:26;;;;;;;;;28.75;18.75;;;;;4.68;76.51;103430.53;5077294;28;46036;-53
2022/01/18 07:20:51;;;;;;;;;28.75;23.00;;;;;4.70;75.99;103426.06;5079764;27;45271;-51
2022/01/18 07:23:17;;;;;;;;;30.75;22.25;;;;;4.66;76.15;103424.44;5080159;27;45314;-57
2022/01/18 07:25:46;;;;;;;;;27.75;18.75;;;;;4.65;75.77;103427.97;5079664;28;45305;-54
2022/01/18 07:28:13;;;;;;;;;33.50;23.25;;;;;4.66;76.52;103431.47;5079058;27;45436;-50
2022/01/18 07:30:39;;;;;;;;;33.00;27.75;;;;;4.66;75.66;103431.47;5079109;27;45423;-58
2022/01/18 07:33:06;;;;;;;;;25.50;23.00;;;;;4.66;76.32;103429.69;5078720;27;45397;-48
2022/01/18 07:35:34;;;;;;;;;30.00;21.75;;;;;4.69;75.95;103429.63;5079115;27;45413;-58
2022/01/18 07:38:03;;;;;;;;;38.00;28.50;;;;;4.70;75.61;103423.44;5078779;28;46059;-46
2022/01/18 07:40:30;;;;;;;;;28.75;21.00;;;;;4.74;75.53;103421.59;5078766;27;45250;-51
2022/01/18 07:42:56;;;;;;;;;21.25;21.25;;;;;4.74;75.74;103422.44;5079163;27;45240;-56
2022/01/18 07:45:22;;;;;;;;;27.75;23.00;;;;;4.76;76.14;103419.75;5079021;27;45626;-52
2022/01/18 07:47:48;;;;;;;;;32.25;20.00;;;;;4.79;76.16;103418.81;5078473;27;47215;-58
2022/01/18 07:50:14;;;;;;;;;24.25;20.75;;;;;4.82;76.19;103421.38;5079042;27;45386;-51
2022/01/18 07:52:40;;;;;;;;;27.75;21.00;;;;;4.86;75.43;103429.16;5078711;27;45355;-51
2022/01/18 07:55:06;;;;;;;;;26.50;22.25;;;;;4.93;75.84;103427.19;5079135;27;45224;-54
2022/01/18 07:57:32;;;;;;;;;27.00;22.25;;;;;4.98;75.56;103430.56;5078243;27;45574;-47
2022/01/18 07:59:57;;;;;;;;;39.75;25.00;;;;;5.04;75.50;103414.56;5078657;27;45259;-51
2022/01/18 08:02:23;;;;;;;;;30.75;21.25;;;;;5.10;75.29;103424.94;5078921;27;45459;-57
2022/01/18 08:04:48;;;;;;;;;34.00;25.25;;;;;5.16;74.62;103423.88;5078761;27;45335;-57
2022/01/18 08:07:14;;;;;;;;;31.75;23.50;;;;;5.23;75.37;103421.03;5078418;28;46020;-57
2022/01/18 08:09:40;;;;;;;;;29.25;21.50;;;;;5.32;75.23;103411.09;5078783;27;45481;-59
2022/01/18 08:12:06;;;;;;;;;26.25;19.25;;;;;5.40;74.31;103409.09;5078498;28;45532;-51
2022/01/18 08:14:33;;;;;;;;;32.00;27.25;;;;;5.43;74.80;103408.97;5078663;28;45335;-56
2022/01/18 08:17:04;;;;;;;;;30.00;24.00;;;;;5.55;73.91;103400.66;5078412;27;46048;-54
2022/01/18 08:19:34;;;;;;;;;37.00;28.00;;;;;5.63;73.95;103403.06;5078244;27;45463;-58
2022/01/18 08:22:00;;;;;;;;;38.00;27.75;;;;;5.71;73.71;103407.19;5078348;27;45359;-56
2022/01/18 08:24:26;;;;;;;;;34.00;26.50;;;;;5.79;73.97;103403.44;5094054;27;45354;-56
2022/01/18 08:26:52;;;;;;;;;30.50;24.50;;;;;5.83;73.56;103400.63;5077933;27;46948;-56
2022/01/18 08:29:18;;;;;;;;;35.25;22.50;;;;;5.94;73.50;103409.13;5078256;27;45344;-55
2022/01/18 08:31:43;;;;;;;;;25.75;25.50;;;;;5.99;73.54;103412.44;5078444;27;45261;-54
2022/01/18 08:34:09;;;;;;;;;36.50;28.25;;;;;5.98;73.33;103391.34;5078401;27;45420;-50
2022/01/18 08:36:36;;;;;;;;;26.00;24.75;;;;;6.12;73.46;103407.63;5077622;27;46105;-59
2022/01/18 08:39:03;;;;;;;;;33.25;23.25;;;;;6.20;73.02;103410.00;5076632;28;45380;-49
2022/01/18 08:41:28;;;;;;;;;28.75;23.50;;;;;6.30;73.12;103406.09;5078811;27;45337;-46
2022/01/18 08:43:54;;;;;;;;;29.00;19.25;;;;;6.43;72.77;103406.53;5078263;27;45466;-47
2022/01/18 08:46:20;;;;;;;;;30.25;23.50;;;;;6.55;72.67;103406.09;5077845;27;45353;-47
2022/01/18 08:48:47;;;;;;;;;23.50;18.75;;;;;6.55;72.36;103394.66;5077787;27;45362;-53
2022/01/18 08:51:13;;;;;;;;;33.25;20.75;;;;;6.65;72.09;103388.09;5077851;27;45311;-50
2022/01/18 08:53:39;;;;;;;;;33.50;21.50;;;;;6.83;72.07;103407.75;5078899;27;45231;-49
2022/01/18 08:56:05;;;;;;;;;26.25;19.50;;;;;6.87;72.17;103382.88;5077565;27;45349;-47
2022/01/18 08:58:32;;;;;;;;;29.75;20.25;;;;;7.07;71.52;103396.22;5077644;27;45466;-48
2022/01/18 09:00:57;;;;;;;;;39.25;25.50;;;;;7.07;71.78;103398.84;5078055;27;45367;-45
2022/01/18 09:03:23;;;;;;;;;29.75;21.50;;;;;7.09;71.76;103399.69;5077775;27;45414;-49
2022/01/18 09:05:48;;;;;;;;;35.00;24.00;;;;;7.02;71.44;103395.53;5077778;27;45913;-47
2022/01/18 09:08:14;;;;;;;;;34.75;25.50;;;;;7.06;71.85;103407.72;5077561;28;45434;-45
2022/01/18 09:10:44;;;;;;;;;18.50;15.25;;;;;7.00;72.00;103395.59;5077698;27;45389;-49
2022/01/18 09:13:09;;;;;;;;;28.00;22.50;;;;;6.94;71.67;103397.59;5078156;27;45407;-45
2022/01/18 09:15:35;;;;;;;;;27.00;24.75;;;;;6.90;71.89;103402.16;5077156;27;47124;-48
2022/01/18 09:18:00;;;;;;;;;35.50;29.50;;;;;6.86;72.32;103387.31;5077450;27;45480;-48
2022/01/18 09:20:26;;;;;;;;;41.50;27.00;;;;;6.88;72.04;103393.41;5077490;27;45370;-47
2022/01/18 09:22:54;;;;;;;;;34.25;24.00;;;;;6.90;72.15;103391.56;5076275;28;45514;-46
2022/01/18 09:25:25;;;;;;;;;34.25;25.50;;;;;6.95;72.36;103394.03;5077075;27;46114;-47
2022/01/18 09:27:50;;;;;;;;;43.25;29.00;;;;;6.96;72.67;103379.91;5077332;27;45434;-47
2022/01/18 09:30:16;;;;;;;;;37.00;29.50;;;;;7.07;72.36;103380.31;5077232;27;45416;-47
2022/01/18 09:32:43;;;;;;;;;39.75;29.25;;;;;8.82;69.70;103387.09;5076715;27;45484;-47
2022/01/18 09:35:10;;;;;;;;;36.75;26.00;;;;;10.94;64.87;103387.94;5077110;27;45980;-52
2022/01/18 09:37:35;;;;;;;;;29.50;24.75;;;;;12.34;61.16;103370.03;5077019;27;45386;-48
2022/01/18 09:40:02;;;;;;;;;40.00;26.75;;;;;13.60;57.85;103381.59;5076762;27;45377;-49
2022/01/18 09:42:33;;;;;;;;;37.50;29.25;;;;;14.47;55.69;103380.97;5077526;27;45467;-49
2022/01/18 09:45:06;;;;;;;;;36.75;28.00;;;;;15.26;53.82;103379.78;5076860;28;46225;-53
2022/01/18 09:47:31;;;;;;;;;33.00;27.33;;;;;15.86;52.28;103370.81;5076719;27;45343;-50
2022/01/18 09:49:58;;;;;;;;;33.33;28.67;;;;;16.24;51.03;103367.00;5077060;27;45467;-52
2022/01/18 09:52:24;;;;;;;;;27.67;24.33;;;;;16.82;49.66;103374.97;5077008;27;45393;-50
2022/01/18 09:54:49;;;;;;;;;34.00;26.00;;;;;17.29;46.67;103373.78;5075108;27;47127;-51
2022/01/18 09:57:14;;;;;;;;;37.00;26.00;;;;;17.62;45.88;103371.97;5076865;27;45354;-48
2022/01/18 09:59:40;;;;;;;;;29.33;24.00;;;;;18.08;46.79;103387.78;5076455;27;45254;-47
2022/01/18 10:02:09;;;;;;;;;26.33;24.00;;;;;18.38;45.31;103373.50;5109472;27;45382;-50
2022/01/18 10:04:42;;;;;;;;;34.33;26.00;;;;;18.61;44.21;103368.75;5076274;27;45268;-50
2022/01/18 10:07:08;;;;;;;;;27.33;23.00;;;;;18.89;43.02;103360.97;5076131;28;45376;-49
2022/01/18 10:09:34;;;;;;;;;26.33;21.33;;;;;19.23;42.20;103364.16;5076301;28;45243;-47
2022/01/18 10:12:08;;;;;;;;;31.33;25.67;;;;;19.63;40.63;103357.78;5076517;27;45459;-48
2022/01/18 10:14:35;;;;;;;;;27.00;19.33;;;;;19.94;42.30;103363.88;5062765;27;45787;-48
2022/01/18 10:17:01;;;;;;;;;24.00;19.33;;;;;20.15;41.95;103356.44;5055871;28;45434;-45
2022/01/18 10:19:42;;;;;;;;;26.33;23.00;;;;;20.20;38.85;103358.69;5056408;28;45309;-47
2022/01/18 10:22:20;;;;;;;;;30.00;21.00;;;;;20.64;41.04;103356.28;5056385;28;45418;-50
2022/01/18 10:24:45;;;;;;;;;30.67;20.67;;;;;20.88;40.39;103348.47;5056951;27;45590;-46
2022/01/18 10:27:13;;;;;;;;;28.00;20.67;;;;;20.89;40.02;103352.88;5065955;27;45490;-56
2022/01/18 10:29:45;;;;;;;;;27.00;17.67;;;;;20.99;38.83;103349.28;5056007;28;45399;-49
2022/01/18 10:32:18;;;;;;;;;13.00;13.00;;;;;21.05;38.64;103329.69;5056094;28;45748;-51
2022/01/18 10:37:28;;;;;;;;;31.67;20.33;;;;;20.80;37.08;103329.44;5055659;28;45424;-49
2022/01/18 10:40:08;;;;;;;;;26.67;22.00;;;;;20.89;38.84;103328.50;5055680;28;45524;-56
2022/01/18 10:42:52;;;;;;;;;25.67;20.00;;;;;20.00;40.12;103328.16;5055890;28;45260;-49
2022/01/18 10:45:33;;;;;;;;;25.33;20.33;;;;;20.04;39.65;103324.19;5057093;27;45519;-49
2022/01/18 10:48:03;;;;;;;;;21.67;19.33;;;;;20.07;38.43;103309.53;5059247;28;45777;-51
2022/01/18 10:50:35;;;;;;;;;24.67;18.33;;;;;19.86;39.32;103302.47;5059409;28;45448;-50
2022/01/18 10:53:29;;;;;;;;;25.67;21.33;;;;;18.84;40.92;103295.78;5091921;27;45377;-49
2022/01/18 10:56:17;;;;;;;;;24.67;22.00;;;;;17.38;41.99;103297.69;5036730;28;45451;-54
2022/01/18 10:58:48;;;;;;;;;26.67;19.00;;;;;16.71;43.71;103282.56;5036851;28;45366;-48
2022/01/18 11:01:17;;;;;;;;;21.00;19.00;;;;;17.29;46.22;103297.59;5036632;28;45927;-49
2022/01/18 11:04:05;;;;;;;;;25.33;20.67;;;;;18.37;42.33;103292.75;5036856;28;45547;-47
2022/01/18 11:06:30;;;;;;;;;22.33;18.67;;;;;19.00;39.77;103282.59;5036149;28;45551;-53
2022/01/18 11:09:15;;;;;;;;;29.00;22.00;;;;;17.98;41.63;103278.28;5036622;28;45252;-48
2022/01/18 11:11:46;;;;;;;;;21.00;16.33;;;;;18.17;42.70;103270.28;5036977;28;45337;-47
2022/01/18 11:14:14;;;;;;;;;25.33;17.33;;;;;19.09;40.00;103262.88;5036554;28;45495;-50
2022/01/18 11:16:43;;;;;;;;;21.67;18.00;;;;;19.70;40.04;103253.59;5036307;28;46148;-48
2022/01/18 11:19:36;;;;;;;;;18.67;13.00;;;;;19.79;39.59;103249.19;5036564;28;45407;-46
2022/01/18 11:22:02;;;;;;;;;19.67;14.67;;;;;19.62;38.12;103251.63;5036322;28;45539;-48
2022/01/18 11:24:29;;;;;;;;;18.33;15.33;;;;;19.30;38.22;103256.47;5036515;28;45490;-46
2022/01/18 11:26:56;;;;;;;;;17.67;16.00;;;;;18.77;38.32;103255.03;5038481;28;46705;-46
2022/01/18 11:29:22;;;;;;;;;12.00;10.67;;;;;18.60;39.94;103242.22;5056610;28;45486;-47
2022/01/18 11:31:53;;;;;;;;;13.33;12.00;;;;;18.20;41.61;103237.69;5057226;28;45337;-48
2022/01/18 11:34:36;;;;;;;;;20.67;13.67;;;;;17.75;42.49;103231.81;5060094;28;45425;-52
2022/01/18 11:37:49;;;;;;;;;18.33;12.33;;;;;17.35;44.71;103229.81;5059499;28;47320;-62
2022/01/18 11:40:17;;;;;;;;;11.33;11.33;;;;;17.03;42.92;103221.81;5056092;28;45398;-65
2022/01/18 11:42:54;;;;;;;;;15.67;13.00;;;;;16.74;44.43;103211.63;5058748;28;45735;-61
2022/01/18 11:45:25;;;;;;;;;16.67;13.67;;;;;16.59;45.74;103204.78;5058814;28;45417;-62
2022/01/18 11:48:07;;;;;;;;;15.33;11.00;;;;;16.40;45.09;103208.16;5057914;28;47283;-66
2022/01/18 11:50:41;;;;;;;;;17.00;11.00;;;;;16.52;44.50;103207.16;5057699;28;45441;-48
2022/01/18 11:53:21;;;;;;;;;12.00;10.00;;;;;16.94;42.83;103196.53;5057843;28;45465;-46
2022/01/18 11:55:46;;;;;;;;;16.33;12.00;;;;;17.57;43.73;103194.72;5057438;28;45425;-63
2022/01/18 11:58:12;;;;;;;;;12.00;9.33;;;;;18.15;40.14;103189.59;5056962;28;45370;-46
2022/01/18 12:00:51;;;;;;;;;11.33;9.33;;;;;18.88;39.52;103182.09;5057763;28;45748;-59
2022/01/18 12:03:21;;;;;;;;;13.00;11.00;;;;;19.47;37.99;103182.00;5058306;28;45344;-64
2022/01/18 12:05:47;;;;;;;;;13.67;10.00;;;;;19.80;39.41;103170.69;5058527;28;45976;-58
2022/01/18 12:08:35;;;;;;;;;11.67;10.67;;;;;19.92;38.74;103174.06;5057877;28;46760;-63
2022/01/18 12:11:04;;;;;;;;;14.67;11.33;;;;;19.87;36.69;103177.22;5058155;28;45421;-51
2022/01/18 12:13:35;;;;;;;;;13.33;8.00;;;;;19.92;36.04;103163.25;5058750;28;45316;-59
2022/01/18 12:16:04;;;;;;;;;7.00;7.00;;;;;19.91;35.76;103158.84;5057975;28;45380;-63
2022/01/18 12:18:31;;;;;;;;;10.67;7.00;;;;;19.89;36.94;103161.72;5056436;28;47824;-57
2022/01/18 12:21:03;;;;;;;;;8.00;7.00;;;;;19.91;35.24;103159.72;5058797;28;45331;-74
2022/01/18 12:23:43;;;;;;;;;12.00;8.00;;;;;19.71;36.75;103149.97;5057860;28;45449;-72
2022/01/18 12:26:31;;;;;;;;;5.67;2.33;;;;;19.44;35.61;103151.63;5057382;28;45425;-47
2022/01/18 12:34:28;;;;;;;;;19.67;10.00;;;;;19.16;37.36;103133.63;5057111;28;45585;-47
2022/01/18 12:39:54;;;;;;;;;10.33;7.33;;;;;19.15;38.24;103126.53;5015140;28;1196361;-55
2022/01/18 12:45:05;;;;;;;;;16.33;14.00;;;;;18.77;37.57;103116.66;5060609;28;45441;-74
2022/01/18 12:47:35;;;;;;;;;11.33;11.33;;;;;18.43;38.09;103117.06;5059103;28;45871;-54
2022/01/18 12:50:05;;;;;;;;;14.00;12.00;;;;;17.35;39.76;103117.66;5057656;28;46235;-53
2022/01/18 12:52:56;;;;;;;;;15.00;11.00;;;;;17.41;41.49;103116.31;5056651;28;45440;-54